Huvudsida
METAR-TAF:

METAR-TAF

Flygplatser :

Lusaka International Airport

Lusaka, Zambia

latitud: 15-19-51S, longitud: 028-27-09E, höjd: 1152 m

Aktuellt väderrapport

Denna rapport gjordes för 21 timmar och 8 minuter sedan, klockan 13:00 UTC
Vind 10 kt från ost
Temperatur 23°C
Fuktighet 38%
Tryck 1025 hPa
Sikt 10 km eller mer
Spridda moln på en höjd av 3500 ft

METAR: FLKK 031300Z 08010KT 9999 SCT035 23/08 Q1025

Tid: 12:08 (10:08 UTC)


TAF: saknas

Aktuella väderrapporter och prognoser från 4000 flygplatser (METAR- och TAF-rapporter).

De tillgängliga stationerna syns som gula och röda prickar på kartan.

För musen över prickarna för att se namnen på stationerna.

Klicka sedan för att få väderrapporter och prognoser.

För att ändra kartan: Klicka på de gröna knapparna med ett svart kors på för att zooma in; den gröna knappen med ett streck på för att zooma ut; eller på de gröna pilarna för angränsande kartor.


METAR-TAF: